createdAt,value
2018-11-20T00:00:23.608Z,3.90
2018-11-20T00:03:10.548Z,3.55
2018-11-20T00:06:15.639Z,3.60
2018-11-20T00:09:02.593Z,3.40
2018-11-20T00:11:52.531Z,3.70
2018-11-20T00:14:34.002Z,3.80
2018-11-20T00:17:29.617Z,3.20
2018-11-20T00:20:28.460Z,3.70
2018-11-20T00:23:14.164Z,3.70
2018-11-20T00:26:01.135Z,3.40
2018-11-20T00:28:47.108Z,3.77
2018-11-20T00:31:43.543Z,4.30
2018-11-20T00:34:33.833Z,4.20
2018-11-20T00:37:29.352Z,3.83
2018-11-20T00:40:06.435Z,3.97
2018-11-20T00:42:52.092Z,4.00
2018-11-20T00:45:48.810Z,4.40
2018-11-20T00:48:41.730Z,4.20
2018-11-20T00:51:34.266Z,4.40
2018-11-20T00:54:36.540Z,4.40
2018-11-20T00:57:29.041Z,4.20
2018-11-20T01:00:25.176Z,4.10
2018-11-20T01:03:14.475Z,4.10
2018-11-20T01:06:04.491Z,4.20
2018-11-20T01:08:49.129Z,4.22
2018-11-20T01:11:41.938Z,4.45
2018-11-20T01:14:26.337Z,4.35
2018-11-20T01:17:17.536Z,4.40
2018-11-20T01:20:07.862Z,4.80
2018-11-20T01:22:49.228Z,5.37
2018-11-20T01:25:51.459Z,5.30
2018-11-20T01:28:56.962Z,5.60
2018-11-20T01:31:43.939Z,5.70
2018-11-20T01:34:46.054Z,5.70
2018-11-20T01:37:24.170Z,5.78
2018-11-20T01:40:07.312Z,5.40
2018-11-20T01:42:57.458Z,5.47
2018-11-20T01:45:47.122Z,5.70
2018-11-20T01:48:33.232Z,5.90
2018-11-20T01:51:19.962Z,6.05
2018-11-20T01:53:59.160Z,6.10
2018-11-20T01:56:36.557Z,5.60
2018-11-20T01:59:29.828Z,5.60
2018-11-20T02:02:11.093Z,6.00
2018-11-20T02:05:01.199Z,5.30
2018-11-20T02:08:00.407Z,5.42
2018-11-20T02:10:56.411Z,5.67
2018-11-20T02:14:05.537Z,5.05
2018-11-20T02:16:59.954Z,5.55
2018-11-20T02:19:47.278Z,5.10
2018-11-20T02:22:29.070Z,5.40
2018-11-20T02:25:28.094Z,5.25
2018-11-20T02:28:13.547Z,4.95
2018-11-20T02:30:59.217Z,5.30
2018-11-20T02:33:44.847Z,5.17
2018-11-20T02:36:31.105Z,5.53
2018-11-20T02:39:27.550Z,5.47
2018-11-20T02:42:14.540Z,5.30
2018-11-20T02:44:59.958Z,5.58
2018-11-20T02:47:55.584Z,5.40
2018-11-20T02:50:57.429Z,5.83
2018-11-20T02:53:46.067Z,5.42
2018-11-20T02:56:33.060Z,6.10
2018-11-20T02:59:22.875Z,5.90
2018-11-20T03:02:08.866Z,5.60
2018-11-20T03:05:02.137Z,5.97
2018-11-20T03:07:40.147Z,5.90
2018-11-20T03:10:20.101Z,5.90
2018-11-20T03:13:19.291Z,5.92
2018-11-20T03:16:06.253Z,5.87
2018-11-20T03:19:01.089Z,5.90
2018-11-20T03:21:40.955Z,5.72
2018-11-20T03:24:46.816Z,6.00
2018-11-20T03:27:46.039Z,6.10
2018-11-20T03:31:00.074Z,6.20
2018-11-20T03:33:42.475Z,6.40
2018-11-20T03:36:28.086Z,6.17
2018-11-20T03:39:17.902Z,6.60
2018-11-20T03:42:03.668Z,6.70
2018-11-20T03:44:49.417Z,6.45
2018-11-20T03:47:36.758Z,6.80
2018-11-20T03:50:24.433Z,6.87
2018-11-20T03:53:23.773Z,6.33
2018-11-20T03:56:26.379Z,5.95
2018-11-20T03:59:12.208Z,6.10
2018-11-20T04:02:05.140Z,6.10
2018-11-20T04:04:45.534Z,6.10
2018-11-20T04:07:31.309Z,5.87
2018-11-20T04:10:13.991Z,5.40
2018-11-20T04:13:03.860Z,5.55
2018-11-20T04:15:49.873Z,5.50
2018-11-20T04:18:30.142Z,5.80
2018-11-20T04:21:19.388Z,6.03
2018-11-20T04:24:05.165Z,5.62
2018-11-20T04:27:01.587Z,5.33
2018-11-20T04:29:45.802Z,5.60
2018-11-20T04:32:22.434Z,5.75
2018-11-20T04:35:11.061Z,5.80
2018-11-20T04:37:52.346Z,6.08
2018-11-20T04:40:36.945Z,5.75
2018-11-20T04:43:36.007Z,5.83
2018-11-20T04:46:21.997Z,5.97
2018-11-20T04:49:08.966Z,5.80
2018-11-20T04:51:45.797Z,5.80
2018-11-20T04:54:31.885Z,6.08
2018-11-20T04:57:17.721Z,6.00
2018-11-20T05:00:07.963Z,6.17
2018-11-20T05:03:13.002Z,6.40
2018-11-20T05:05:59.979Z,6.10
2018-11-20T05:08:45.341Z,6.40
2018-11-20T05:11:47.551Z,6.08
2018-11-20T05:14:34.249Z,6.22
2018-11-20T05:17:24.312Z,6.12
2018-11-20T05:20:11.791Z,6.53
2018-11-20T05:23:14.168Z,6.93
2018-11-20T05:26:00.366Z,6.83
2018-11-20T05:28:46.496Z,6.80
2018-11-20T05:31:42.524Z,6.72
2018-11-20T05:34:28.323Z,7.30
2018-11-20T05:37:18.235Z,7.17
2018-11-20T05:39:55.552Z,7.30
2018-11-20T05:42:41.461Z,7.35
2018-11-20T05:45:40.345Z,7.03
2018-11-20T05:48:36.282Z,7.03
2018-11-20T05:51:33.922Z,7.05
2018-11-20T05:54:19.917Z,6.80
2018-11-20T05:56:54.854Z,7.37
2018-11-20T05:59:50.845Z,6.90
2018-11-20T06:02:36.665Z,7.50
2018-11-20T06:05:23.597Z,7.97
2018-11-20T06:08:10.521Z,7.40
2018-11-20T06:10:57.807Z,7.33
2018-11-20T06:13:37.661Z,7.70
2018-11-20T06:16:33.329Z,7.80
2018-11-20T06:19:20.604Z,7.78
2018-11-20T06:22:06.058Z,7.50
2018-11-20T06:24:59.100Z,7.47
2018-11-20T06:27:46.088Z,7.00
2018-11-20T06:30:33.279Z,7.53
2018-11-20T06:33:18.902Z,7.58
2018-11-20T06:36:14.985Z,7.67
2018-11-20T06:39:02.270Z,7.28
2018-11-20T06:41:52.430Z,7.83
2018-11-20T06:44:51.708Z,7.60
2018-11-20T06:47:41.544Z,8.40
2018-11-20T06:50:40.766Z,8.05
2018-11-20T06:53:26.509Z,8.03
2018-11-20T06:56:15.792Z,8.15
2018-11-20T06:58:55.581Z,7.95
2018-11-20T07:01:42.519Z,8.10
2018-11-20T07:04:28.543Z,8.30
2018-11-20T07:07:27.803Z,7.75
2018-11-20T07:10:15.453Z,7.65
2018-11-20T07:13:11.383Z,7.85
2018-11-20T07:15:59.574Z,7.67
2018-11-20T07:18:44.852Z,7.20
2018-11-20T07:21:40.766Z,7.45
2018-11-20T07:24:26.869Z,7.65
2018-11-20T07:27:12.509Z,7.33
2018-11-20T07:30:05.657Z,7.40
2018-11-20T07:33:04.539Z,7.05
2018-11-20T07:35:58.868Z,7.47
2018-11-20T07:38:43.083Z,7.20
2018-11-20T07:41:36.575Z,6.97
2018-11-20T07:44:21.770Z,6.87
2018-11-20T07:47:08.687Z,7.17
2018-11-20T07:50:13.996Z,6.60
2018-11-20T07:52:55.144Z,7.00
2018-11-20T07:55:40.563Z,6.87
2018-11-20T07:58:33.464Z,6.90
2018-11-20T08:01:23.372Z,7.17
2018-11-20T08:04:23.470Z,6.95
2018-11-20T08:07:10.454Z,7.15
2018-11-20T08:10:03.216Z,7.05
2018-11-20T08:12:43.297Z,7.20
2018-11-20T08:15:28.880Z,7.00
2018-11-20T08:18:34.347Z,7.12
2018-11-20T08:21:12.346Z,7.00
2018-11-20T08:24:14.525Z,6.70
2018-11-20T08:26:49.390Z,7.30
2018-11-20T08:29:36.352Z,6.85
2018-11-20T08:32:21.757Z,6.75
2018-11-20T08:35:07.215Z,6.72
2018-11-20T08:38:02.874Z,6.53
2018-11-20T08:41:04.751Z,6.80
2018-11-20T08:43:50.693Z,6.80
2018-11-20T08:46:32.185Z,6.70
2018-11-20T08:49:24.677Z,6.90
2018-11-20T08:52:17.590Z,6.30
2018-11-20T08:55:13.671Z,6.75
2018-11-20T08:58:18.710Z,6.30
2018-11-20T09:01:05.950Z,6.20
2018-11-20T09:03:51.430Z,6.47
2018-11-20T09:06:41.416Z,6.30
2018-11-20T09:09:37.476Z,6.58
2018-11-20T09:12:36.129Z,6.20
2018-11-20T09:15:28.964Z,6.67
2018-11-20T09:18:15.006Z,6.40
2018-11-20T09:21:08.017Z,6.47
2018-11-20T09:24:00.816Z,6.25
2018-11-20T09:26:50.427Z,6.10
2018-11-20T09:29:36.021Z,6.33
2018-11-20T09:32:25.781Z,6.50
2018-11-20T09:35:13.544Z,6.10
2018-11-20T09:37:58.990Z,6.60
2018-11-20T09:41:03.664Z,6.70
2018-11-20T09:43:58.908Z,6.20
2018-11-20T09:46:45.910Z,6.15
2018-11-20T09:49:42.772Z,6.20
2018-11-20T09:52:28.884Z,6.40
2018-11-20T09:55:15.769Z,6.60
2018-11-20T09:58:08.941Z,6.77
2018-11-20T10:01:06.197Z,6.50
2018-11-20T10:04:11.120Z,6.50
2018-11-20T10:06:50.422Z,6.33
2018-11-20T10:09:37.690Z,6.50
2018-11-20T10:12:23.784Z,6.70
2018-11-20T10:15:12.389Z,6.50
2018-11-20T10:17:58.146Z,6.80
2018-11-20T10:20:47.989Z,6.20
2018-11-20T10:23:33.755Z,6.40
2018-11-20T10:26:19.842Z,7.07
2018-11-20T10:29:05.515Z,7.30
2018-11-20T10:32:02.224Z,6.53
2018-11-20T10:34:50.778Z,7.03
2018-11-20T10:37:26.749Z,6.60
2018-11-20T10:40:16.660Z,7.10
2018-11-20T10:43:04.785Z,7.35
2018-11-20T10:45:57.480Z,6.97
2018-11-20T10:48:53.580Z,7.03
2018-11-20T10:51:43.374Z,9.35
2018-11-20T10:54:33.122Z,6.78
2018-11-20T10:57:15.178Z,6.80
2018-11-20T11:00:01.155Z,7.00
2018-11-20T11:02:47.290Z,7.03
2018-11-20T11:05:40.447Z,7.00
2018-11-20T11:08:26.246Z,6.62
2018-11-20T11:11:11.945Z,7.00
2018-11-20T11:13:58.318Z,6.50
2018-11-20T11:16:44.128Z,6.50
2018-11-20T11:19:49.349Z,7.03
2018-11-20T11:22:48.154Z,6.80
2018-11-20T11:25:53.406Z,6.85
2018-11-20T11:28:34.171Z,6.80
2018-11-20T11:31:36.530Z,6.65
2018-11-20T11:34:22.320Z,6.90
2018-11-20T11:37:08.263Z,6.60
2018-11-20T11:40:04.096Z,7.20
2018-11-20T11:42:55.463Z,7.00
2018-11-20T11:45:54.732Z,7.35
2018-11-20T11:48:50.404Z,6.70
2018-11-20T11:51:36.222Z,6.67
2018-11-20T11:54:25.240Z,7.33
2018-11-20T11:57:01.302Z,7.10
2018-11-20T11:59:46.877Z,6.80
2018-11-20T12:05:22.954Z,6.95
2018-11-20T12:08:25.194Z,7.30
2018-11-20T12:11:07.087Z,7.58
2018-11-20T12:13:54.081Z,7.80
2018-11-20T12:16:56.109Z,7.60
2018-11-20T12:19:50.701Z,7.72
2018-11-20T12:22:46.703Z,7.87
2018-11-20T12:25:31.238Z,8.30
2018-11-20T12:28:34.758Z,8.20
2018-11-20T12:31:33.030Z,8.50
2018-11-20T12:34:18.977Z,8.58
2018-11-20T12:37:14.598Z,9.00
2018-11-20T12:40:01.079Z,8.83
2018-11-20T12:42:47.288Z,9.30
2018-11-20T12:45:40.541Z,9.03
2018-11-20T12:48:26.835Z,9.08
2018-11-20T12:51:15.005Z,9.10
2018-11-20T12:54:01.962Z,8.80
2018-11-20T12:57:07.551Z,8.70
2018-11-20T12:59:53.843Z,9.10
2018-11-20T13:02:40.104Z,8.60
2018-11-20T13:05:26.045Z,8.73
2018-11-20T13:08:15.915Z,8.50
2018-11-20T13:11:05.552Z,9.03
2018-11-20T13:13:51.062Z,8.60
2018-11-20T13:16:37.268Z,8.50
2018-11-20T13:19:25.444Z,8.25
2018-11-20T13:22:15.330Z,7.78
2018-11-20T13:25:10.987Z,7.95
2018-11-20T13:27:54.246Z,8.55
2018-11-20T13:30:47.526Z,8.15
2018-11-20T13:33:34.435Z,7.80
2018-11-20T13:36:28.913Z,7.60
2018-11-20T13:39:15.121Z,7.67
2018-11-20T13:42:02.050Z,7.50
2018-11-20T13:44:51.603Z,7.90
2018-11-20T13:47:39.878Z,8.35
2018-11-20T13:50:31.827Z,7.95
2018-11-20T13:53:22.953Z,7.90
2018-11-20T13:56:15.789Z,7.53
2018-11-20T13:59:18.305Z,7.40
2018-11-20T14:01:57.141Z,7.95
2018-11-20T14:04:40.988Z,7.40
2018-11-20T14:07:26.712Z,8.30
2018-11-20T14:10:22.928Z,8.20
2018-11-20T14:13:09.411Z,8.15
2018-11-20T14:15:59.020Z,8.03
2018-11-20T14:18:46.313Z,7.93
2018-11-20T14:21:40.265Z,7.70
2018-11-20T14:24:42.306Z,7.50
2018-11-20T14:27:36.543Z,8.15
2018-11-20T14:30:30.384Z,7.83
2018-11-20T14:33:15.840Z,7.37
2018-11-20T14:36:11.680Z,7.35
2018-11-20T14:39:01.533Z,7.00
2018-11-20T14:41:51.421Z,6.92
2018-11-20T14:44:50.848Z,6.30
2018-11-20T14:47:29.966Z,6.78
2018-11-20T14:50:16.871Z,6.40
2018-11-20T14:53:06.943Z,6.80
2018-11-20T14:55:52.762Z,6.37
2018-11-20T14:58:39.715Z,6.10
2018-11-20T15:01:39.012Z,6.00
2018-11-20T15:04:31.713Z,6.20
2018-11-20T15:07:06.594Z,5.80
2018-11-20T15:09:53.561Z,6.30
2018-11-20T15:12:42.061Z,6.22
2018-11-20T15:15:33.137Z,6.30
2018-11-20T15:18:35.171Z,7.10
2018-11-20T15:21:22.486Z,6.70
2018-11-20T15:24:12.574Z,6.60
2018-11-20T15:27:03.713Z,6.75
2018-11-20T15:29:49.343Z,7.00
2018-11-20T15:32:28.283Z,6.90
2018-11-20T15:35:27.004Z,6.70
2018-11-20T15:38:13.910Z,7.40
2018-11-20T15:41:07.212Z,7.47
2018-11-20T15:44:00.040Z,8.00
2018-11-20T15:46:58.912Z,8.30
2018-11-20T15:49:44.486Z,8.57
2018-11-20T15:52:30.154Z,8.00
2018-11-20T15:55:26.516Z,8.33
2018-11-20T15:58:12.622Z,9.40
2018-11-20T16:00:58.090Z,8.60
2018-11-20T16:03:55.244Z,9.00
2018-11-20T16:06:51.172Z,8.80
2018-11-20T16:09:53.658Z,9.33
2018-11-20T16:12:52.678Z,8.60
2018-11-20T16:15:37.450Z,8.58
2018-11-20T16:18:39.887Z,9.08
2018-11-20T16:21:26.823Z,9.00
2018-11-20T16:24:19.725Z,9.10
2018-11-20T16:27:05.171Z,8.50
2018-11-20T16:29:55.922Z,9.10
2018-11-20T16:32:51.871Z,8.40
2018-11-20T16:35:44.474Z,8.57
2018-11-20T16:38:44.023Z,8.90
2018-11-20T16:41:31.374Z,17.98
2018-11-20T16:44:20.973Z,9.60
2018-11-20T16:47:06.526Z,8.50
2018-11-20T16:49:59.461Z,9.50
2018-11-20T16:52:45.272Z,9.55
2018-11-20T16:55:30.938Z,9.00
2018-11-20T16:58:28.393Z,9.10
2018-11-20T17:01:21.658Z,9.00
2018-11-20T17:04:07.297Z,9.23
2018-11-20T17:06:41.651Z,9.28
2018-11-20T17:09:35.128Z,9.70
2018-11-20T17:12:20.905Z,10.20
2018-11-20T17:15:19.701Z,8.78
2018-11-20T17:18:05.835Z,8.87
2018-11-20T17:21:04.655Z,8.70
2018-11-20T17:24:10.055Z,8.97
2018-11-20T17:27:16.264Z,8.70
2018-11-20T17:29:54.535Z,8.30
2018-11-20T17:32:42.873Z,8.60
2018-11-20T17:35:40.903Z,8.55
2018-11-20T17:38:26.700Z,8.28
2018-11-20T17:41:12.828Z,8.13
2018-11-20T17:44:02.667Z,8.20
2018-11-20T17:47:01.724Z,8.25
2018-11-20T17:49:48.004Z,7.85
2018-11-20T17:52:53.567Z,11.93
2018-11-20T17:55:58.762Z,7.85
2018-11-20T17:59:00.956Z,8.20
2018-11-20T18:01:42.867Z,7.80
2018-11-20T18:04:29.787Z,8.15
2018-11-20T18:07:15.238Z,8.40
2018-11-20T18:10:00.795Z,8.10
2018-11-20T18:12:50.933Z,8.40
2018-11-20T18:15:43.818Z,7.90
2018-11-20T18:18:29.716Z,8.70
2018-11-20T18:21:16.977Z,8.00
2018-11-20T18:24:02.993Z,8.63
2018-11-20T18:26:48.375Z,8.80
2018-11-20T18:29:35.715Z,8.50
2018-11-20T18:32:21.660Z,8.40
2018-11-20T18:35:27.295Z,8.30
2018-11-20T18:38:26.099Z,8.88
2018-11-20T18:41:25.428Z,8.70
2018-11-20T18:44:17.085Z,8.50
2018-11-20T18:47:19.174Z,8.77
2018-11-20T18:50:06.114Z,9.00
2018-11-20T18:52:59.011Z,9.13
2018-11-20T18:55:35.781Z,8.90
2018-11-20T18:58:38.099Z,8.78
2018-11-20T19:01:24.270Z,8.97
2018-11-20T19:04:09.972Z,8.60
2018-11-20T19:06:52.412Z,9.05
2018-11-20T19:09:39.866Z,8.78
2018-11-20T19:12:25.874Z,8.90
2018-11-20T19:15:18.325Z,8.43
2018-11-20T19:18:11.258Z,8.60
2018-11-20T19:20:57.472Z,8.90
2018-11-20T19:23:50.458Z,8.98
2018-11-20T19:26:31.635Z,8.90
2018-11-20T19:29:24.747Z,8.93
2018-11-20T19:32:30.710Z,8.20
2018-11-20T19:35:32.754Z,8.30
2018-11-20T19:38:26.679Z,8.70
2018-11-20T19:41:22.788Z,8.80
2018-11-20T19:44:08.967Z,8.88
2018-11-20T19:47:04.937Z,9.08
2018-11-20T19:50:07.511Z,8.50
2018-11-20T19:52:53.406Z,8.38
2018-11-20T19:55:46.847Z,8.80
2018-11-20T19:58:43.185Z,9.30
2018-11-20T20:01:28.629Z,8.80
2018-11-20T20:04:24.497Z,8.98
2018-11-20T20:07:10.579Z,8.88
2018-11-20T20:10:00.087Z,8.90
2018-11-20T20:12:55.804Z,8.70
2018-11-20T20:16:24.977Z,8.70
2018-11-20T20:19:14.233Z,8.80
2018-11-20T20:22:16.308Z,9.23
2018-11-20T20:25:10.710Z,9.48
2018-11-20T20:28:03.064Z,8.93
2018-11-20T20:30:56.180Z,9.38
2018-11-20T20:33:41.609Z,8.90
2018-11-20T20:36:36.164Z,9.33
2018-11-20T20:39:16.608Z,9.50
2018-11-20T20:42:02.738Z,9.20
2018-11-20T20:44:52.723Z,16.97
2018-11-20T20:47:54.691Z,9.28
2018-11-20T20:50:43.978Z,13.58
2018-11-20T20:53:31.769Z,10.32
2018-11-20T20:56:18.361Z,9.87
2018-11-20T20:58:53.337Z,10.15
2018-11-20T21:01:38.873Z,9.55
2018-11-20T21:04:41.293Z,9.90
2018-11-20T21:07:26.390Z,10.35
2018-11-20T21:10:21.745Z,9.75
2018-11-20T21:13:10.921Z,10.37
2018-11-20T21:15:56.220Z,10.30
2018-11-20T21:18:46.131Z,9.90
2018-11-20T21:21:31.714Z,9.63
2018-11-20T21:24:24.278Z,9.90
2018-11-20T21:27:23.052Z,10.20
2018-11-20T21:30:09.941Z,10.38
2018-11-20T21:33:05.910Z,10.10
2018-11-20T21:35:52.774Z,9.93
2018-11-20T21:38:38.461Z,10.40
2018-11-20T21:41:31.417Z,10.43
2018-11-20T21:44:17.035Z,10.40
2018-11-20T21:46:59.611Z,10.88
2018-11-20T21:49:54.188Z,10.40
2018-11-20T21:52:56.096Z,10.30
2018-11-20T21:55:41.857Z,10.90
2018-11-20T21:58:27.024Z,9.90
2018-11-20T22:01:20.601Z,10.50
2018-11-20T22:04:16.409Z,10.10
2018-11-20T22:07:01.979Z,10.43
2018-11-20T22:09:55.183Z,10.60
2018-11-20T22:12:40.647Z,10.13
2018-11-20T22:15:26.264Z,10.50
2018-11-20T22:18:12.019Z,10.65
2018-11-20T22:21:10.434Z,10.05
2018-11-20T22:23:51.169Z,10.08
2018-11-20T22:26:38.097Z,10.25
2018-11-20T22:29:27.658Z,10.10
2018-11-20T22:32:13.139Z,10.50
2018-11-20T22:35:03.438Z,10.28
2018-11-20T22:38:05.606Z,11.13
2018-11-20T22:41:04.380Z,10.35
2018-11-20T22:43:49.791Z,10.63
2018-11-20T22:46:48.887Z,11.03
2018-11-20T22:49:34.756Z,11.33
2018-11-20T22:52:24.226Z,11.48
2018-11-20T22:55:11.666Z,11.60
2018-11-20T22:58:13.837Z,11.28
2018-11-20T23:01:01.284Z,11.97
2018-11-20T23:03:46.632Z,12.15
2018-11-20T23:06:32.702Z,11.88
2018-11-20T23:09:00.550Z,11.70
2018-11-20T23:11:27.881Z,12.10
2018-11-20T23:13:55.202Z,12.50
2018-11-20T23:16:22.541Z,11.80
2018-11-20T23:18:49.936Z,12.50
2018-11-20T23:21:17.245Z,12.65
2018-11-20T23:23:45.349Z,12.50
2018-11-20T23:26:12.692Z,12.85
2018-11-20T23:28:40.030Z,12.20
2018-11-20T23:31:07.357Z,12.40
2018-11-20T23:33:34.983Z,13.05
2018-11-20T23:36:02.287Z,12.58
2018-11-20T23:38:29.943Z,13.00
2018-11-20T23:40:57.570Z,12.68
2018-11-20T23:43:24.894Z,12.43
2018-11-20T23:45:52.536Z,12.33
2018-11-20T23:48:19.907Z,13.22
2018-11-20T23:50:47.636Z,12.90
2018-11-20T23:53:15.743Z,12.50
2018-11-20T23:55:43.627Z,13.00
2018-11-20T23:58:11.328Z,12.70
